CDH4 weather

Public forecast

Using degrees Celsius for public forecast. Weather courtesy of forecast.io.

Closest aviation weather report (METAR) to Cowichan District Hospital Heliport

Closest report is Victoria International Airport, 14.4 nm (26.6 km) SE. Retrieved 2020/08/14 10:00 UTC (52 minutes ago):

CYYJ 141000Z 25006KT 20SM SKC 13/10 A3018 RMK SLP221

Closest aviation forecast (TAF) to Cowichan District Hospital Heliport

Closest forecast is Victoria International Airport, 14.4 nm (26.6 km) SE. Retrieved 2020/08/14 06:39 UTC (4 hours ago):

TAF CYYJ 140538Z 1406/1506 VRB03KT P6SM SKC BECMG 1407/1409 28006KT FM141500 29005KT P6SM FEW007 FM141800 12007KT P6SM FEW030 RMK NXT FCST BY 141200Z